createdAt,value
2024-01-06T00:00:51.285Z,97937.06
2024-01-06T00:03:24.314Z,97939.47
2024-01-06T00:05:57.738Z,97928.88
2024-01-06T00:08:30.634Z,97936.34
2024-01-06T00:11:05.145Z,97927.66
2024-01-06T00:13:38.451Z,97934.09
2024-01-06T00:16:12.895Z,97921.91
2024-01-06T00:18:45.983Z,97931.00
2024-01-06T00:21:18.907Z,97928.56
2024-01-06T00:23:51.866Z,97933.66
2024-01-06T00:26:25.529Z,97932.31
2024-01-06T00:28:58.321Z,97940.97
2024-01-06T00:31:32.744Z,97934.19
2024-01-06T00:34:05.972Z,97940.16
2024-01-06T00:36:39.031Z,97931.97
2024-01-06T00:39:11.921Z,97941.28
2024-01-06T00:41:44.811Z,97936.16
2024-01-06T00:44:17.676Z,97943.56
2024-01-06T00:46:52.028Z,97939.19
2024-01-06T00:49:25.094Z,97937.81
2024-01-06T00:51:58.155Z,97947.19
2024-01-06T00:54:31.216Z,97945.53
2024-01-06T00:57:04.070Z,97956.25
2024-01-06T00:59:36.921Z,97944.97
2024-01-06T01:02:11.079Z,97949.00
2024-01-06T01:04:43.932Z,97951.75
2024-01-06T01:07:17.035Z,97949.22
2024-01-06T01:09:49.932Z,97957.41
2024-01-06T01:12:22.786Z,97963.22
2024-01-06T01:14:56.106Z,97967.66
2024-01-06T01:17:30.668Z,97966.50
2024-01-06T01:20:03.862Z,97967.66
2024-01-06T01:22:37.339Z,97970.94
2024-01-06T01:25:11.162Z,97967.66
2024-01-06T01:27:43.979Z,97975.16
2024-01-06T01:30:16.260Z,97977.44
2024-01-06T01:32:50.706Z,97983.00
2024-01-06T01:35:23.632Z,97977.38
2024-01-06T01:37:56.428Z,97974.53
2024-01-06T01:40:29.319Z,97976.22
2024-01-06T01:43:04.877Z,97971.34
2024-01-06T01:45:37.711Z,97973.28
2024-01-06T01:48:12.198Z,97983.25
2024-01-06T01:50:45.365Z,97989.59
2024-01-06T01:53:18.371Z,97997.09
2024-01-06T01:55:52.079Z,97998.53
2024-01-06T01:58:24.933Z,97998.53
2024-01-06T02:00:57.860Z,98000.81
2024-01-06T02:03:32.827Z,98003.03
2024-01-06T02:06:05.854Z,98004.09
2024-01-06T02:08:39.278Z,98009.22
2024-01-06T02:11:12.136Z,98003.53
2024-01-06T02:13:45.075Z,98008.25
2024-01-06T02:16:18.088Z,98011.91
2024-01-06T02:18:52.296Z,98002.47
2024-01-06T02:21:25.857Z,98010.06
2024-01-06T02:24:00.012Z,98002.72
2024-01-06T02:26:33.110Z,98001.22
2024-01-06T02:29:05.928Z,98002.91
2024-01-06T02:31:38.913Z,98002.56
2024-01-06T02:34:19.329Z,98004.31
2024-01-06T02:36:52.065Z,98017.34
2024-01-06T02:39:26.267Z,98018.63
2024-01-06T02:41:59.111Z,98013.41
2024-01-06T02:44:31.913Z,98018.47
2024-01-06T02:47:04.960Z,98012.97
2024-01-06T02:49:38.054Z,98005.78
2024-01-06T02:52:10.950Z,98006.00
2024-01-06T02:54:45.233Z,98014.63
2024-01-06T02:57:18.296Z,98018.22
2024-01-06T02:59:51.623Z,98021.56
2024-01-06T03:02:24.505Z,98020.69
2024-01-06T03:04:57.528Z,98022.84
2024-01-06T03:07:30.279Z,98021.41
2024-01-06T03:10:04.956Z,98023.81
2024-01-06T03:12:38.279Z,98026.16
2024-01-06T03:15:12.055Z,98036.28
2024-01-06T03:17:45.020Z,98031.34
2024-01-06T03:20:18.026Z,98041.66
2024-01-06T03:22:51.023Z,98045.97
2024-01-06T03:25:25.195Z,98046.34
2024-01-06T03:27:58.166Z,98039.59
2024-01-06T03:30:31.175Z,98047.25
2024-01-06T03:33:04.409Z,98052.34
2024-01-06T03:35:37.245Z,98048.59
2024-01-06T03:38:10.131Z,98037.81
2024-01-06T03:40:44.413Z,98044.69
2024-01-06T03:43:17.206Z,98044.38
2024-01-06T03:45:50.114Z,98041.31
2024-01-06T03:48:23.081Z,98044.66
2024-01-06T03:50:56.242Z,98056.59
2024-01-06T03:53:29.061Z,98050.09
2024-01-06T03:56:03.415Z,98054.38
2024-01-06T03:58:36.507Z,98053.19
2024-01-06T04:01:09.398Z,98050.63
2024-01-06T04:03:42.747Z,98049.53
2024-01-06T04:06:16.397Z,98053.88
2024-01-06T04:08:49.290Z,98052.03
2024-01-06T04:11:23.631Z,98058.63
2024-01-06T04:13:56.451Z,98056.28
2024-01-06T04:16:29.396Z,98050.38
2024-01-06T04:19:02.339Z,98043.28
2024-01-06T04:21:35.301Z,98046.38
2024-01-06T04:24:09.226Z,98041.22
2024-01-06T04:26:46.068Z,98047.72
2024-01-06T04:29:18.844Z,98052.88
2024-01-06T04:31:51.791Z,98059.78
2024-01-06T04:34:24.662Z,98055.41
2024-01-06T04:36:57.658Z,98061.41
2024-01-06T04:39:30.436Z,98059.78
2024-01-06T04:42:05.213Z,98051.25
2024-01-06T04:44:38.064Z,98056.69
2024-01-06T04:47:10.923Z,98058.97
2024-01-06T04:49:43.838Z,98056.59
2024-01-06T04:52:16.661Z,98051.47
2024-01-06T04:54:49.794Z,98050.31
2024-01-06T04:57:24.567Z,98050.66
2024-01-06T04:59:57.384Z,98056.41
2024-01-06T05:02:30.422Z,98066.38
2024-01-06T05:05:03.264Z,98071.94
2024-01-06T05:07:36.101Z,98064.84
2024-01-06T05:10:10.181Z,98058.69
2024-01-06T05:12:45.066Z,98067.00
2024-01-06T05:15:18.236Z,98063.09
2024-01-06T05:17:51.128Z,98063.81
2024-01-06T05:20:23.973Z,98070.16
2024-01-06T05:22:56.709Z,98074.78
2024-01-06T05:25:29.544Z,98073.53
2024-01-06T05:28:03.761Z,98074.97
2024-01-06T05:30:36.871Z,98092.13
2024-01-06T05:33:15.192Z,98081.69
2024-01-06T05:35:48.473Z,98091.78
2024-01-06T05:38:21.268Z,98094.69
2024-01-06T05:40:54.052Z,98100.41
2024-01-06T05:43:28.511Z,98097.59
2024-01-06T05:46:01.398Z,98101.25
2024-01-06T05:48:34.691Z,98097.53
2024-01-06T05:51:07.691Z,98099.72
2024-01-06T05:53:40.488Z,98101.63
2024-01-06T05:56:13.468Z,98114.72
2024-01-06T05:58:47.832Z,98110.59
2024-01-06T06:01:23.461Z,98119.84
2024-01-06T06:03:56.913Z,98116.28
2024-01-06T06:06:29.804Z,98129.69
2024-01-06T06:09:07.930Z,98127.75
2024-01-06T06:11:40.718Z,98134.75
2024-01-06T06:14:15.460Z,98135.84
2024-01-06T06:16:49.029Z,98143.31
2024-01-06T06:19:21.938Z,98137.00
2024-01-06T06:21:55.055Z,98142.47
2024-01-06T06:24:27.968Z,98153.59
2024-01-06T06:27:00.829Z,98150.81
2024-01-06T06:29:35.485Z,98156.38
2024-01-06T06:32:09.191Z,98161.88
2024-01-06T06:34:42.034Z,98163.13
2024-01-06T06:37:15.250Z,98172.19
2024-01-06T06:39:48.443Z,98164.34
2024-01-06T06:42:21.614Z,98162.69
2024-01-06T06:44:56.869Z,98170.13
2024-01-06T06:47:29.709Z,98174.41
2024-01-06T06:50:02.652Z,98172.47
2024-01-06T06:52:35.496Z,98172.38
2024-01-06T06:55:09.176Z,98168.47
2024-01-06T06:57:42.057Z,98172.75
2024-01-06T07:00:18.305Z,98179.00
2024-01-06T07:02:51.293Z,98171.66
2024-01-06T07:05:24.150Z,98181.81
2024-01-06T07:07:57.208Z,98184.16
2024-01-06T07:10:29.994Z,98186.88
2024-01-06T07:13:02.898Z,98188.66
2024-01-06T07:15:37.261Z,98187.44
2024-01-06T07:18:10.968Z,98186.94
2024-01-06T07:20:43.880Z,98192.09
2024-01-06T07:23:16.734Z,98186.34
2024-01-06T07:25:50.346Z,98197.13
2024-01-06T07:28:23.284Z,98196.84
2024-01-06T07:30:57.522Z,98188.41
2024-01-06T07:33:30.602Z,98202.50
2024-01-06T07:36:03.433Z,98208.00
2024-01-06T07:38:36.297Z,98203.50
2024-01-06T07:41:09.246Z,98209.81
2024-01-06T07:43:41.967Z,98210.34
2024-01-06T07:46:18.292Z,98221.81
2024-01-06T07:48:52.779Z,98217.94
2024-01-06T07:51:26.238Z,98230.69
2024-01-06T07:53:59.426Z,98238.94
2024-01-06T07:56:32.197Z,98243.78
2024-01-06T07:59:06.330Z,98242.47
2024-01-06T08:01:40.699Z,98253.06
2024-01-06T08:04:13.629Z,98241.59
2024-01-06T08:06:46.561Z,98242.66
2024-01-06T08:09:19.411Z,98238.28
2024-01-06T08:11:52.335Z,98235.84
2024-01-06T08:14:25.132Z,98240.34
2024-01-06T08:16:59.235Z,98243.66
2024-01-06T08:19:33.681Z,98244.13
2024-01-06T08:22:06.556Z,98247.50
2024-01-06T08:24:39.438Z,98245.16
2024-01-06T08:27:12.306Z,98249.59
2024-01-06T08:29:45.151Z,98254.44
2024-01-06T08:32:19.311Z,98258.66
2024-01-06T08:34:52.229Z,98269.41
2024-01-06T08:37:25.034Z,98273.94
2024-01-06T08:39:58.018Z,98274.28
2024-01-06T08:42:30.986Z,98278.06
2024-01-06T08:45:04.207Z,98281.81
2024-01-06T08:47:39.040Z,98280.47
2024-01-06T08:50:11.854Z,98284.19
2024-01-06T08:52:44.623Z,98295.19
2024-01-06T08:55:18.099Z,98288.75
2024-01-06T08:57:50.921Z,98301.59
2024-01-06T09:00:23.887Z,98289.69
2024-01-06T09:02:58.117Z,98292.66
2024-01-06T09:05:31.077Z,98296.16
2024-01-06T09:08:04.268Z,98296.97
2024-01-06T09:10:37.269Z,98299.91
2024-01-06T09:13:10.099Z,98294.13
2024-01-06T09:15:43.592Z,98292.50
2024-01-06T09:18:18.124Z,98293.19
2024-01-06T09:20:51.028Z,98303.25
2024-01-06T09:23:25.573Z,98307.59
2024-01-06T09:25:59.003Z,98307.84
2024-01-06T09:28:31.915Z,98311.28
2024-01-06T09:31:06.007Z,98304.66
2024-01-06T09:33:40.286Z,98322.19
2024-01-06T09:36:14.930Z,98325.84
2024-01-06T09:38:47.928Z,98325.28
2024-01-06T09:41:22.843Z,98333.13
2024-01-06T09:43:56.927Z,98324.34
2024-01-06T09:46:31.578Z,98324.44
2024-01-06T09:49:06.333Z,98321.41
2024-01-06T09:51:41.364Z,98334.38
2024-01-06T09:54:15.434Z,98327.25
2024-01-06T09:56:48.569Z,98320.06
2024-01-06T09:59:21.371Z,98327.59
2024-01-06T10:01:55.088Z,98329.47
2024-01-06T10:04:29.335Z,98329.84
2024-01-06T10:07:02.427Z,98332.75
2024-01-06T10:09:35.539Z,98338.41
2024-01-06T10:12:09.436Z,98340.09
2024-01-06T10:14:42.427Z,98335.16
2024-01-06T10:17:15.684Z,98332.34
2024-01-06T10:19:50.477Z,98337.25
2024-01-06T10:22:24.122Z,98330.91
2024-01-06T10:24:57.289Z,98336.19
2024-01-06T10:27:30.414Z,98339.75
2024-01-06T10:30:03.848Z,98338.38
2024-01-06T10:32:38.248Z,98338.94
2024-01-06T10:35:13.080Z,98353.16
2024-01-06T10:37:46.339Z,98344.97
2024-01-06T10:40:19.934Z,98348.00
2024-01-06T10:42:53.622Z,98346.41
2024-01-06T10:45:26.489Z,98349.50
2024-01-06T10:48:01.868Z,98349.94
2024-01-06T10:50:36.758Z,98350.19
2024-01-06T10:53:10.876Z,98344.91
2024-01-06T10:55:44.137Z,98345.75
2024-01-06T10:58:19.174Z,98351.91
2024-01-06T11:00:52.805Z,98358.03
2024-01-06T11:03:27.415Z,98354.09
2024-01-06T11:06:02.162Z,98360.31
2024-01-06T11:08:44.321Z,98353.56
2024-01-06T11:11:18.835Z,98357.31
2024-01-06T11:13:52.044Z,98352.63
2024-01-06T11:16:37.969Z,98346.28
2024-01-06T11:19:45.809Z,98341.97
2024-01-06T11:22:26.168Z,98338.31
2024-01-06T11:25:05.876Z,98340.28
2024-01-06T11:27:38.952Z,98349.50
2024-01-06T11:30:22.129Z,98334.72
2024-01-06T11:32:56.121Z,98338.72
2024-01-06T11:35:30.102Z,98328.28
2024-01-06T11:38:05.160Z,98333.91
2024-01-06T11:40:39.065Z,98331.50
2024-01-06T11:43:13.715Z,98331.88
2024-01-06T11:45:46.924Z,98328.75
2024-01-06T11:48:25.966Z,98336.44
2024-01-06T11:51:00.652Z,98332.50
2024-01-06T11:53:38.881Z,98333.44
2024-01-06T11:56:12.027Z,98319.47
2024-01-06T11:58:44.924Z,98332.78
2024-01-06T12:01:17.879Z,98330.56
2024-01-06T12:03:56.414Z,98327.38
2024-01-06T12:06:29.277Z,98323.44
2024-01-06T12:09:07.460Z,98326.72
2024-01-06T12:11:40.786Z,98323.78
2024-01-06T12:14:13.617Z,98320.97
2024-01-06T12:16:46.404Z,98326.22
2024-01-06T12:19:19.824Z,98328.59
2024-01-06T12:21:52.762Z,98327.09
2024-01-06T12:24:30.608Z,98318.25
2024-01-06T12:27:03.697Z,98317.16
2024-01-06T12:29:40.716Z,98322.34
2024-01-06T12:32:14.609Z,98320.66
2024-01-06T12:34:48.261Z,98316.19
2024-01-06T12:37:21.342Z,98313.78
2024-01-06T12:39:56.036Z,98311.38
2024-01-06T12:42:30.209Z,98308.50
2024-01-06T12:45:03.329Z,98314.09
2024-01-06T12:47:36.693Z,98302.69
2024-01-06T12:50:10.221Z,98312.75
2024-01-06T12:52:43.279Z,98312.28
2024-01-06T12:55:17.886Z,98306.22
2024-01-06T12:57:50.888Z,98311.00
2024-01-06T13:00:24.048Z,98312.91
2024-01-06T13:02:57.229Z,98298.94
2024-01-06T13:05:30.369Z,98296.03
2024-01-06T13:08:04.467Z,98302.16
2024-01-06T13:10:39.617Z,98305.09
2024-01-06T13:13:12.615Z,98310.66
2024-01-06T13:15:47.243Z,98318.28
2024-01-06T13:18:20.337Z,98317.66
2024-01-06T13:20:54.472Z,98314.50
2024-01-06T13:23:27.391Z,98321.91
2024-01-06T13:26:01.960Z,98334.59
2024-01-06T13:28:34.772Z,98321.66
2024-01-06T13:31:08.203Z,98323.75
2024-01-06T13:33:41.623Z,98328.91
2024-01-06T13:36:14.806Z,98327.16
2024-01-06T13:38:49.307Z,98343.91
2024-01-06T13:41:23.777Z,98333.69
2024-01-06T13:43:56.786Z,98331.38
2024-01-06T13:46:29.672Z,98340.72
2024-01-06T13:49:03.355Z,98343.09
2024-01-06T13:51:37.074Z,98342.69
2024-01-06T13:54:10.490Z,98348.25
2024-01-06T13:56:44.643Z,98352.44
2024-01-06T13:59:17.887Z,98344.84
2024-01-06T14:01:51.415Z,98345.09
2024-01-06T14:04:24.921Z,98349.41
2024-01-06T14:07:00.183Z,98351.03
2024-01-06T14:09:35.183Z,98355.84
2024-01-06T14:12:09.730Z,98358.44
2024-01-06T14:14:43.091Z,98353.56
2024-01-06T14:17:15.852Z,98361.72
2024-01-06T14:19:48.832Z,98359.13
2024-01-06T14:22:21.760Z,98366.84
2024-01-06T14:24:54.773Z,98368.19
2024-01-06T14:27:30.943Z,98365.78
2024-01-06T14:30:03.958Z,98368.91
2024-01-06T14:32:37.598Z,98375.09
2024-01-06T14:35:12.726Z,98372.53
2024-01-06T14:37:46.576Z,98375.78
2024-01-06T14:40:19.605Z,98379.63
2024-01-06T14:42:53.797Z,98380.06
2024-01-06T14:45:28.035Z,98383.13
2024-01-06T14:48:01.922Z,98383.28
2024-01-06T14:50:35.164Z,98394.88
2024-01-06T14:53:08.029Z,98391.66
2024-01-06T14:55:41.002Z,98390.88
2024-01-06T14:58:15.102Z,98398.97
2024-01-06T15:00:48.010Z,98396.22
2024-01-06T15:03:20.856Z,98401.84
2024-01-06T15:05:53.871Z,98409.91
2024-01-06T15:08:27.694Z,98406.84
2024-01-06T15:11:00.505Z,98422.03
2024-01-06T15:13:34.762Z,98415.34
2024-01-06T15:16:08.799Z,98425.19
2024-01-06T15:18:41.714Z,98430.19
2024-01-06T15:21:16.318Z,98426.47
2024-01-06T15:23:49.366Z,98425.03
2024-01-06T15:26:26.466Z,98421.72
2024-01-06T15:29:01.797Z,98428.53
2024-01-06T15:31:34.923Z,98433.59
2024-01-06T15:34:08.340Z,98433.16
2024-01-06T15:36:41.362Z,98428.53
2024-01-06T15:39:15.469Z,98428.53
2024-01-06T15:41:48.327Z,98431.06
2024-01-06T15:44:22.480Z,98427.69
2024-01-06T15:46:55.297Z,98426.50
2024-01-06T15:49:28.763Z,98423.44
2024-01-06T15:52:02.665Z,98424.63
2024-01-06T15:54:35.697Z,98433.31
2024-01-06T15:57:09.716Z,98433.63
2024-01-06T15:59:43.915Z,98436.97
2024-01-06T16:02:17.085Z,98437.72
2024-01-06T16:04:49.860Z,98439.78
2024-01-06T16:07:24.099Z,98445.22
2024-01-06T16:09:57.505Z,98441.22
2024-01-06T16:12:32.196Z,98435.47
2024-01-06T16:15:07.307Z,98433.84
2024-01-06T16:17:40.196Z,98445.81
2024-01-06T16:20:13.518Z,98450.41
2024-01-06T16:22:47.448Z,98440.34
2024-01-06T16:25:20.403Z,98441.09
2024-01-06T16:27:54.726Z,98440.50
2024-01-06T16:30:29.037Z,98441.53
2024-01-06T16:33:02.932Z,98443.66
2024-01-06T16:35:36.100Z,98443.34
2024-01-06T16:38:11.971Z,98445.03
2024-01-06T16:40:44.932Z,98443.41
2024-01-06T16:43:17.924Z,98446.09
2024-01-06T16:45:53.029Z,98443.94
2024-01-06T16:48:26.062Z,98437.78
2024-01-06T16:50:58.929Z,98436.97
2024-01-06T16:53:32.211Z,98452.06
2024-01-06T16:56:05.686Z,98451.94
2024-01-06T16:58:39.735Z,98447.97
2024-01-06T17:01:15.325Z,98456.75
2024-01-06T17:03:48.422Z,98460.13
2024-01-06T17:06:21.434Z,98455.03
2024-01-06T17:08:54.382Z,98464.22
2024-01-06T17:11:27.269Z,98464.53
2024-01-06T17:14:00.062Z,98465.72
2024-01-06T17:16:34.941Z,98459.78
2024-01-06T17:19:08.127Z,98476.41
2024-01-06T17:21:41.125Z,98476.88
2024-01-06T17:24:14.338Z,98478.75
2024-01-06T17:26:47.481Z,98479.09
2024-01-06T17:29:20.293Z,98474.75
2024-01-06T17:31:56.490Z,98478.88
2024-01-06T17:34:32.874Z,98490.91
2024-01-06T17:37:06.177Z,98489.13
2024-01-06T17:39:39.160Z,98495.44
2024-01-06T17:42:12.025Z,98490.56
2024-01-06T17:44:47.190Z,98488.78
2024-01-06T17:47:21.405Z,98488.72
2024-01-06T17:49:54.314Z,98490.25
2024-01-06T17:52:28.037Z,98486.00
2024-01-06T17:55:01.031Z,98493.22
2024-01-06T17:57:35.838Z,98495.47
2024-01-06T18:00:10.423Z,98499.16
2024-01-06T18:02:47.996Z,98494.84
2024-01-06T18:05:21.395Z,98498.81
2024-01-06T18:07:54.517Z,98499.94
2024-01-06T18:10:28.335Z,98512.59
2024-01-06T18:13:01.355Z,98503.81
2024-01-06T18:15:34.642Z,98505.06
2024-01-06T18:18:09.088Z,98506.28
2024-01-06T18:20:47.981Z,98504.31
2024-01-06T18:23:22.760Z,98504.25
2024-01-06T18:25:55.642Z,98512.59
2024-01-06T18:28:28.843Z,98518.56
2024-01-06T18:31:01.868Z,98519.72
2024-01-06T18:33:36.356Z,98512.22
2024-01-06T18:36:09.966Z,98519.53
2024-01-06T18:38:42.827Z,98511.34
2024-01-06T18:41:15.650Z,98514.38
2024-01-06T18:43:48.523Z,98514.75
2024-01-06T18:46:21.527Z,98514.72
2024-01-06T18:48:55.940Z,98518.59
2024-01-06T18:51:30.307Z,98519.78
2024-01-06T18:54:03.188Z,98518.19
2024-01-06T18:56:36.191Z,98522.09
2024-01-06T18:59:10.549Z,98522.97
2024-01-06T19:01:46.495Z,98524.50
2024-01-06T19:04:21.196Z,98532.38
2024-01-06T19:06:54.175Z,98529.41
2024-01-06T19:09:29.628Z,98523.41
2024-01-06T19:12:03.602Z,98522.13
2024-01-06T19:14:39.237Z,98520.16
2024-01-06T19:17:12.233Z,98525.34
2024-01-06T19:19:46.522Z,98526.22
2024-01-06T19:22:19.554Z,98526.66
2024-01-06T19:24:53.311Z,98523.50
2024-01-06T19:27:26.208Z,98520.75
2024-01-06T19:29:59.619Z,98531.03
2024-01-06T19:32:32.958Z,98531.41
2024-01-06T19:35:08.665Z,98527.84
2024-01-06T19:37:41.907Z,98531.75
2024-01-06T19:40:16.735Z,98536.09
2024-01-06T19:42:50.526Z,98532.53
2024-01-06T19:45:24.905Z,98536.84
2024-01-06T19:47:57.882Z,98534.47
2024-01-06T19:50:32.327Z,98526.22
2024-01-06T19:53:05.783Z,98534.94
2024-01-06T19:55:38.684Z,98532.94
2024-01-06T19:58:11.559Z,98528.63
2024-01-06T20:00:44.444Z,98539.66
2024-01-06T20:03:17.422Z,98536.06
2024-01-06T20:05:51.882Z,98545.66
2024-01-06T20:08:24.867Z,98532.19
2024-01-06T20:11:01.633Z,98544.03
2024-01-06T20:13:34.460Z,98531.38
2024-01-06T20:16:08.480Z,98525.03
2024-01-06T20:18:41.468Z,98533.25
2024-01-06T20:21:15.872Z,98530.16
2024-01-06T20:23:48.799Z,98533.38
2024-01-06T20:26:21.733Z,98530.59
2024-01-06T20:28:54.812Z,98533.00
2024-01-06T20:31:28.215Z,98538.94
2024-01-06T20:34:01.442Z,98529.06
2024-01-06T20:36:35.895Z,98537.69
2024-01-06T20:39:08.971Z,98533.78
2024-01-06T20:41:41.980Z,98531.81
2024-01-06T20:44:15.008Z,98535.75
2024-01-06T20:46:48.957Z,98539.22
2024-01-06T20:49:24.216Z,98534.16
2024-01-06T20:51:59.304Z,98532.56
2024-01-06T20:54:32.624Z,98532.94
2024-01-06T20:57:05.894Z,98539.25
2024-01-06T20:59:38.915Z,98531.03
2024-01-06T21:02:14.939Z,98528.31
2024-01-06T21:04:49.102Z,98533.34
2024-01-06T21:07:25.982Z,98535.34
2024-01-06T21:09:59.047Z,98528.16
2024-01-06T21:12:34.275Z,98529.31
2024-01-06T21:15:07.532Z,98531.81
2024-01-06T21:17:40.906Z,98531.38
2024-01-06T21:20:14.535Z,98531.88
2024-01-06T21:22:49.037Z,98535.41
2024-01-06T21:25:22.887Z,98530.16
2024-01-06T21:27:55.883Z,98535.28
2024-01-06T21:30:32.420Z,98531.69
2024-01-06T21:33:08.431Z,98538.31
2024-01-06T21:35:43.123Z,98534.84
2024-01-06T21:38:17.365Z,98535.94
2024-01-06T21:40:50.262Z,98533.53
2024-01-06T21:43:23.493Z,98531.59
2024-01-06T21:45:56.663Z,98529.19
2024-01-06T21:48:30.969Z,98531.94
2024-01-06T21:51:04.966Z,98531.53
2024-01-06T21:53:39.204Z,98536.25
2024-01-06T21:56:12.254Z,98536.66
2024-01-06T21:58:45.191Z,98544.66
2024-01-06T22:01:18.369Z,98545.81
2024-01-06T22:03:51.566Z,98546.16
2024-01-06T22:06:24.497Z,98549.75
2024-01-06T22:08:58.718Z,98545.78
2024-01-06T22:11:50.351Z,98547.75
2024-01-06T22:14:24.737Z,98554.03
2024-01-06T22:16:57.604Z,98554.75
2024-01-06T22:19:30.497Z,98554.03
2024-01-06T22:22:04.438Z,98546.53
2024-01-06T22:24:38.857Z,98553.22
2024-01-06T22:27:11.905Z,98561.09
2024-01-06T22:29:45.640Z,98561.91
2024-01-06T22:32:18.596Z,98557.53
2024-01-06T22:34:56.687Z,98563.97
2024-01-06T22:37:30.711Z,98562.41
2024-01-06T22:40:10.051Z,98559.19
2024-01-06T22:42:43.453Z,98555.63
2024-01-06T22:45:16.502Z,98557.69
2024-01-06T22:47:50.472Z,98557.69
2024-01-06T22:50:23.743Z,98554.41
2024-01-06T22:52:56.861Z,98563.91
2024-01-06T22:55:31.032Z,98567.91
2024-01-06T22:58:03.953Z,98567.47
2024-01-06T23:00:38.237Z,98558.41
2024-01-06T23:03:11.394Z,98565.47
2024-01-06T23:05:44.522Z,98558.41
2024-01-06T23:08:17.348Z,98562.38
2024-01-06T23:10:52.088Z,98569.13
2024-01-06T23:13:25.247Z,98560.78
2024-01-06T23:15:59.381Z,98570.28
2024-01-06T23:18:32.571Z,98577.44
2024-01-06T23:21:06.839Z,98578.63
2024-01-06T23:23:40.148Z,98579.81
2024-01-06T23:26:14.448Z,98583.31
2024-01-06T23:28:48.339Z,98584.16
2024-01-06T23:31:21.292Z,98592.81
2024-01-06T23:33:54.985Z,98599.16
2024-01-06T23:36:27.934Z,98588.97
2024-01-06T23:39:00.965Z,98598.53
2024-01-06T23:41:35.291Z,98594.91
2024-01-06T23:44:08.338Z,98596.44
2024-01-06T23:46:41.171Z,98593.56
2024-01-06T23:49:15.062Z,98589.22
2024-01-06T23:51:48.112Z,98603.03
2024-01-06T23:54:21.402Z,98592.78
2024-01-06T23:56:56.174Z,98599.09
2024-01-06T23:59:29.089Z,98594.03
